createdAt,value
2023-03-05T00:02:07.157Z,8.00
2023-03-05T00:04:34.428Z,9.13
2023-03-05T00:07:01.906Z,9.10
2023-03-05T00:09:29.354Z,6.83
2023-03-05T00:11:56.681Z,7.60
2023-03-05T00:14:24.141Z,8.37
2023-03-05T00:16:51.517Z,7.23
2023-03-05T00:19:18.864Z,6.77
2023-03-05T00:21:46.226Z,6.87
2023-03-05T00:24:15.372Z,6.77
2023-03-05T00:26:42.662Z,9.13
2023-03-05T00:29:24.391Z,9.40
2023-03-05T00:31:51.790Z,9.30
2023-03-05T00:34:20.010Z,6.43
2023-03-05T00:36:48.932Z,9.87
2023-03-05T00:39:17.589Z,9.93
2023-03-05T00:41:44.982Z,8.70
2023-03-05T00:44:12.798Z,11.13
2023-03-05T00:46:40.493Z,8.63
2023-03-05T00:49:08.188Z,7.63
2023-03-05T00:51:35.829Z,9.30
2023-03-05T00:54:03.523Z,8.07
2023-03-05T00:56:30.823Z,7.70
2023-03-05T00:58:58.301Z,9.53
2023-03-05T01:01:26.038Z,9.10
2023-03-05T01:03:56.428Z,8.17
2023-03-05T01:06:23.983Z,7.40
2023-03-05T01:08:51.544Z,6.07
2023-03-05T01:11:18.969Z,9.43
2023-03-05T01:13:46.409Z,7.03
2023-03-05T01:16:13.955Z,9.43
2023-03-05T01:18:41.838Z,7.50
2023-03-05T01:21:09.599Z,7.33
2023-03-05T01:23:37.604Z,7.47
2023-03-05T01:26:05.569Z,7.87
2023-03-05T01:28:33.394Z,8.80
2023-03-05T01:31:00.755Z,7.63
2023-03-05T01:33:28.183Z,6.57
2023-03-05T01:35:55.675Z,8.07
2023-03-05T01:38:23.154Z,7.73
2023-03-05T01:40:50.594Z,8.00
2023-03-05T01:43:25.797Z,7.60
2023-03-05T01:46:11.849Z,7.87
2023-03-05T01:48:40.199Z,9.17
2023-03-05T01:51:08.131Z,9.87
2023-03-05T01:53:35.555Z,8.00
2023-03-05T01:56:03.276Z,10.03
2023-03-05T01:58:30.678Z,9.93
2023-03-05T02:00:58.183Z,9.03
2023-03-05T02:03:26.410Z,7.43
2023-03-05T02:05:53.884Z,10.00
2023-03-05T02:08:22.565Z,8.40
2023-03-05T02:10:51.716Z,11.70
2023-03-05T02:13:22.761Z,10.80
2023-03-05T02:15:51.210Z,7.63
2023-03-05T02:18:19.277Z,10.63
2023-03-05T02:20:46.599Z,10.17
2023-03-05T02:23:14.319Z,8.97
2023-03-05T02:25:41.637Z,12.90
2023-03-05T02:28:11.678Z,10.87
2023-03-05T02:30:39.121Z,11.50
2023-03-05T02:33:06.442Z,10.93
2023-03-05T02:35:34.269Z,10.00
2023-03-05T02:38:04.485Z,10.97
2023-03-05T02:40:31.957Z,8.63
2023-03-05T02:42:59.320Z,11.27
2023-03-05T02:45:26.639Z,8.23
2023-03-05T02:47:55.368Z,10.47
2023-03-05T02:50:23.087Z,9.70
2023-03-05T02:52:50.506Z,10.53
2023-03-05T02:55:17.804Z,11.47
2023-03-05T02:57:45.400Z,9.43
2023-03-05T03:00:13.105Z,10.60
2023-03-05T03:02:40.562Z,10.67
2023-03-05T03:05:08.121Z,9.90
2023-03-05T03:07:36.684Z,13.37
2023-03-05T03:10:07.484Z,9.10
2023-03-05T03:12:39.524Z,12.63
2023-03-05T03:15:08.321Z,9.70
2023-03-05T03:17:36.639Z,11.23
2023-03-05T03:20:09.000Z,12.07
2023-03-05T03:22:36.325Z,10.53
2023-03-05T03:25:05.408Z,9.83
2023-03-05T03:27:32.841Z,11.93
2023-03-05T03:30:04.526Z,12.33
2023-03-05T03:32:32.756Z,11.00
2023-03-05T03:35:00.846Z,11.30
2023-03-05T03:37:28.563Z,15.07
2023-03-05T03:39:55.965Z,12.30
2023-03-05T03:42:24.286Z,13.73
2023-03-05T03:44:51.844Z,13.33
2023-03-05T03:47:19.606Z,13.97
2023-03-05T03:49:46.971Z,11.67
2023-03-05T03:52:14.404Z,14.83
2023-03-05T03:54:41.687Z,14.47
2023-03-05T03:57:09.084Z,11.50
2023-03-05T03:59:36.443Z,11.83
2023-03-05T04:02:06.764Z,12.87
2023-03-05T04:04:34.147Z,13.70
2023-03-05T04:07:01.651Z,10.50
2023-03-05T04:09:28.931Z,11.90
2023-03-05T04:11:56.250Z,11.20
2023-03-05T04:14:23.727Z,13.13
2023-03-05T04:16:51.018Z,14.43
2023-03-05T04:19:18.368Z,13.20
2023-03-05T04:21:45.890Z,13.20
2023-03-05T04:24:13.289Z,12.13
2023-03-05T04:26:40.645Z,11.43
2023-03-05T04:29:08.203Z,12.53
2023-03-05T04:31:35.549Z,12.50
2023-03-05T04:34:03.028Z,10.87
2023-03-05T04:36:32.687Z,12.13
2023-03-05T04:39:00.038Z,11.67
2023-03-05T04:41:27.322Z,13.93
2023-03-05T04:43:54.704Z,15.10
2023-03-05T04:46:22.148Z,12.27
2023-03-05T04:48:50.108Z,13.73
2023-03-05T04:51:17.639Z,15.40
2023-03-05T04:53:45.013Z,11.03
2023-03-05T04:56:12.440Z,13.70
2023-03-05T04:58:39.757Z,13.33
2023-03-05T05:01:07.614Z,13.50
2023-03-05T05:03:35.405Z,11.37
2023-03-05T05:06:02.918Z,14.03
2023-03-05T05:08:30.440Z,13.13
2023-03-05T05:10:59.044Z,12.93
2023-03-05T05:13:26.878Z,13.70
2023-03-05T05:15:54.386Z,14.13
2023-03-05T05:18:22.209Z,13.40
2023-03-05T05:20:49.561Z,15.67
2023-03-05T05:23:17.397Z,13.00
2023-03-05T05:25:44.687Z,15.13
2023-03-05T05:28:12.483Z,14.00
2023-03-05T05:30:39.843Z,14.37
2023-03-05T05:33:07.158Z,14.57
2023-03-05T05:35:34.591Z,14.57
2023-03-05T05:38:01.884Z,12.00
2023-03-05T05:40:29.262Z,12.47
2023-03-05T05:42:56.650Z,15.43
2023-03-05T05:45:24.150Z,14.27
2023-03-05T05:47:51.563Z,14.73
2023-03-05T05:50:20.247Z,12.77
2023-03-05T05:52:47.649Z,16.87
2023-03-05T05:55:14.970Z,14.77
2023-03-05T05:57:42.461Z,14.60
2023-03-05T06:00:10.937Z,15.07
2023-03-05T06:02:39.409Z,15.07
2023-03-05T06:05:07.392Z,14.07
2023-03-05T06:07:38.130Z,16.80
2023-03-05T06:10:08.350Z,12.57
2023-03-05T06:12:35.689Z,15.60
2023-03-05T06:15:03.070Z,13.13
2023-03-05T06:17:31.203Z,13.53
2023-03-05T06:19:59.245Z,15.57
2023-03-05T06:22:26.610Z,15.60
2023-03-05T06:24:54.010Z,14.13
2023-03-05T06:27:21.405Z,14.30
2023-03-05T06:29:48.800Z,14.70
2023-03-05T06:32:16.207Z,17.07
2023-03-05T06:34:43.589Z,15.33
2023-03-05T06:37:10.998Z,14.60
2023-03-05T06:39:38.444Z,16.73
2023-03-05T06:42:05.967Z,12.90
2023-03-05T06:44:33.478Z,15.40
2023-03-05T06:47:00.851Z,16.83
2023-03-05T06:49:28.164Z,16.40
2023-03-05T06:51:55.449Z,14.07
2023-03-05T06:54:23.193Z,16.13
2023-03-05T06:56:50.569Z,14.67
2023-03-05T06:59:18.322Z,14.80
2023-03-05T07:01:46.205Z,16.10
2023-03-05T07:04:14.097Z,15.50
2023-03-05T07:06:44.895Z,15.27
2023-03-05T07:09:14.972Z,16.13
2023-03-05T07:11:42.456Z,14.20
2023-03-05T07:14:12.940Z,15.53
2023-03-05T07:16:40.304Z,15.67
2023-03-05T07:19:08.160Z,15.63
2023-03-05T07:21:39.069Z,14.97
2023-03-05T07:24:07.357Z,15.10
2023-03-05T07:26:35.143Z,13.90
2023-03-05T07:29:03.052Z,17.27
2023-03-05T07:31:33.733Z,15.53
2023-03-05T07:34:02.530Z,14.80
2023-03-05T07:36:30.274Z,17.03
2023-03-05T07:38:57.723Z,14.70
2023-03-05T07:41:25.108Z,15.70
2023-03-05T07:43:53.625Z,14.80
2023-03-05T07:46:22.358Z,15.27
2023-03-05T07:48:49.864Z,13.43
2023-03-05T07:51:18.788Z,16.13
2023-03-05T07:53:47.221Z,14.50
2023-03-05T07:56:14.764Z,16.07
2023-03-05T07:58:42.458Z,16.00
2023-03-05T08:01:16.877Z,14.30
2023-03-05T08:03:44.732Z,16.20
2023-03-05T08:06:14.044Z,18.93
2023-03-05T08:08:41.483Z,15.93
2023-03-05T08:11:10.142Z,17.00
2023-03-05T08:13:37.888Z,17.00
2023-03-05T08:16:06.460Z,15.27
2023-03-05T08:18:34.155Z,18.07
2023-03-05T08:21:01.851Z,16.67
2023-03-05T08:23:29.728Z,17.50
2023-03-05T08:25:57.148Z,18.27
2023-03-05T08:28:24.569Z,18.37
2023-03-05T08:30:52.073Z,16.57
2023-03-05T08:33:19.519Z,14.40
2023-03-05T08:35:47.049Z,14.07
2023-03-05T08:38:14.595Z,15.47
2023-03-05T08:40:43.449Z,18.10
2023-03-05T08:43:10.803Z,18.17
2023-03-05T08:45:40.110Z,16.87
2023-03-05T08:48:07.690Z,15.37
2023-03-05T08:50:38.903Z,17.67
2023-03-05T08:53:06.499Z,15.00
2023-03-05T08:55:33.883Z,15.60
2023-03-05T08:58:01.270Z,16.10
2023-03-05T09:00:28.640Z,16.87
2023-03-05T09:02:56.115Z,18.07
2023-03-05T09:05:23.626Z,13.30
2023-03-05T09:07:51.104Z,15.73
2023-03-05T09:10:19.303Z,14.47
2023-03-05T09:12:46.607Z,13.33
2023-03-05T09:15:14.124Z,15.50
2023-03-05T09:17:42.575Z,15.63
2023-03-05T09:20:12.126Z,17.07
2023-03-05T09:22:39.568Z,15.00
2023-03-05T09:25:07.482Z,17.57
2023-03-05T09:27:35.691Z,15.90
2023-03-05T09:30:04.050Z,18.90
2023-03-05T09:32:31.853Z,18.07
2023-03-05T09:34:59.464Z,21.07
2023-03-05T09:37:26.967Z,22.70
2023-03-05T09:39:54.289Z,17.67
2023-03-05T09:42:27.826Z,18.20
2023-03-05T09:45:00.846Z,19.03
2023-03-05T09:47:28.231Z,20.90
2023-03-05T09:49:59.050Z,16.37
2023-03-05T09:52:32.445Z,16.80
2023-03-05T09:54:59.838Z,16.00
2023-03-05T09:57:32.494Z,17.37
2023-03-05T10:00:29.341Z,15.20
2023-03-05T10:02:58.886Z,14.20
2023-03-05T10:05:32.013Z,17.47
2023-03-05T10:08:02.136Z,18.80
2023-03-05T10:10:41.335Z,16.57
2023-03-05T10:13:17.245Z,18.53
2023-03-05T10:15:56.790Z,17.60
2023-03-05T10:18:24.135Z,20.17
2023-03-05T10:20:51.527Z,17.40
2023-03-05T10:23:29.628Z,18.17
2023-03-05T10:25:57.129Z,16.37
2023-03-05T10:28:34.093Z,17.23
2023-03-05T10:31:09.830Z,16.37
2023-03-05T10:33:37.256Z,16.57
2023-03-05T10:36:07.488Z,17.87
2023-03-05T10:38:57.081Z,16.33
2023-03-05T10:41:33.677Z,16.63
2023-03-05T10:44:01.008Z,21.40
2023-03-05T10:46:33.185Z,16.67
2023-03-05T10:49:03.829Z,16.93
2023-03-05T10:51:34.612Z,19.47
2023-03-05T10:54:10.447Z,16.23
2023-03-05T10:56:37.767Z,14.63
2023-03-05T10:59:05.017Z,15.53
2023-03-05T11:01:33.342Z,17.77
2023-03-05T11:04:03.692Z,17.80
2023-03-05T11:06:45.993Z,16.07
2023-03-05T11:09:18.429Z,16.40
2023-03-05T11:12:02.679Z,13.63
2023-03-05T11:14:33.274Z,16.00
2023-03-05T11:17:02.016Z,18.63
2023-03-05T11:19:33.362Z,11.97
2023-03-05T11:22:20.792Z,11.53
2023-03-05T11:25:07.042Z,11.93
2023-03-05T11:27:34.438Z,12.20
2023-03-05T11:30:01.892Z,15.30
2023-03-05T11:32:30.222Z,15.87
2023-03-05T11:34:58.411Z,11.50
2023-03-05T11:37:34.607Z,11.27
2023-03-05T11:40:11.430Z,11.87
2023-03-05T11:42:41.205Z,9.77
2023-03-05T11:45:15.448Z,11.67
2023-03-05T11:47:53.080Z,11.17
2023-03-05T11:50:25.127Z,11.27
2023-03-05T11:53:04.356Z,12.77
2023-03-05T11:55:31.648Z,12.03
2023-03-05T11:58:11.451Z,18.33
2023-03-05T12:00:42.248Z,16.60
2023-03-05T12:03:12.925Z,13.63
2023-03-05T12:05:42.768Z,14.60
2023-03-05T12:08:14.190Z,12.10
2023-03-05T12:10:41.867Z,13.20
2023-03-05T12:13:25.747Z,12.00
2023-03-05T12:16:02.243Z,10.97
2023-03-05T12:18:39.089Z,11.97
2023-03-05T12:21:15.243Z,10.67
2023-03-05T12:23:52.930Z,11.43
2023-03-05T12:26:40.760Z,12.10
2023-03-05T12:29:27.267Z,12.80
2023-03-05T12:31:54.579Z,9.07
2023-03-05T12:34:38.096Z,9.63
2023-03-05T12:37:06.308Z,9.93
2023-03-05T12:39:56.331Z,10.00
2023-03-05T12:42:29.857Z,9.60
2023-03-05T12:45:12.771Z,10.33
2023-03-05T12:47:40.981Z,8.17
2023-03-05T12:50:26.511Z,10.03
2023-03-05T12:52:58.673Z,9.87
2023-03-05T12:55:36.135Z,11.50
2023-03-05T12:58:14.505Z,9.67
2023-03-05T13:00:47.438Z,9.20
2023-03-05T13:03:23.778Z,8.33
2023-03-05T13:05:53.317Z,8.77
2023-03-05T13:08:20.994Z,9.27
2023-03-05T13:11:11.557Z,8.57
2023-03-05T13:13:42.333Z,8.43
2023-03-05T13:16:18.898Z,8.90
2023-03-05T13:18:50.064Z,10.20
2023-03-05T13:21:18.744Z,9.53
2023-03-05T13:23:58.232Z,8.63
2023-03-05T13:26:30.127Z,10.83
2023-03-05T13:29:08.171Z,9.17
2023-03-05T13:31:36.485Z,9.33
2023-03-05T13:34:15.174Z,9.00
2023-03-05T13:36:46.761Z,10.17
2023-03-05T13:39:26.165Z,10.33
2023-03-05T13:41:57.695Z,11.47
2023-03-05T13:44:25.344Z,10.63
2023-03-05T13:46:52.762Z,7.87
2023-03-05T13:49:29.083Z,9.53
2023-03-05T13:51:59.389Z,9.43
2023-03-05T13:54:27.598Z,9.90
2023-03-05T13:56:55.119Z,8.47
2023-03-05T13:59:23.910Z,7.47
2023-03-05T14:01:51.987Z,6.87
2023-03-05T14:04:30.175Z,8.97
2023-03-05T14:06:58.382Z,11.37
2023-03-05T14:09:33.245Z,8.97
2023-03-05T14:12:05.379Z,7.17
2023-03-05T14:14:36.038Z,6.63
2023-03-05T14:17:23.666Z,7.47
2023-03-05T14:19:52.281Z,8.07
2023-03-05T14:22:30.720Z,6.40
2023-03-05T14:24:58.101Z,8.33
2023-03-05T14:27:25.451Z,10.23
2023-03-05T14:29:52.878Z,9.23
2023-03-05T14:32:22.444Z,7.73
2023-03-05T14:34:52.204Z,8.93
2023-03-05T14:37:24.554Z,12.57
2023-03-05T14:39:53.686Z,9.00
2023-03-05T14:42:28.679Z,7.77
2023-03-05T14:44:56.641Z,8.53
2023-03-05T14:47:24.860Z,10.43
2023-03-05T14:49:52.158Z,10.67
2023-03-05T14:52:20.800Z,9.67
2023-03-05T14:54:49.010Z,10.00
2023-03-05T14:57:18.926Z,9.03
2023-03-05T14:59:46.300Z,9.67
2023-03-05T15:02:17.998Z,11.23
2023-03-05T15:04:48.390Z,11.70
2023-03-05T15:07:23.465Z,11.13
2023-03-05T15:09:50.810Z,9.73
2023-03-05T15:12:18.334Z,11.50
2023-03-05T15:14:48.734Z,10.40
2023-03-05T15:17:45.046Z,13.20
2023-03-05T15:20:15.200Z,10.87
2023-03-05T15:22:42.547Z,13.57
2023-03-05T15:25:10.525Z,17.03
2023-03-05T15:27:37.918Z,14.13
2023-03-05T15:30:06.439Z,15.47
2023-03-05T15:32:33.929Z,12.83
2023-03-05T15:35:01.730Z,14.27
2023-03-05T15:37:29.193Z,15.33
2023-03-05T15:39:56.457Z,12.23
2023-03-05T15:42:26.508Z,14.47
2023-03-05T15:44:53.978Z,20.10
2023-03-05T15:47:21.415Z,14.10
2023-03-05T15:49:48.941Z,15.97
2023-03-05T15:52:16.442Z,14.17
2023-03-05T15:54:43.820Z,12.57
2023-03-05T15:57:11.943Z,15.37
2023-03-05T15:59:39.699Z,15.73
2023-03-05T16:02:07.522Z,13.80
2023-03-05T16:04:34.961Z,19.53
2023-03-05T16:07:04.165Z,14.83
2023-03-05T16:09:33.601Z,17.87
2023-03-05T16:12:01.452Z,17.13
2023-03-05T16:14:29.713Z,17.07
2023-03-05T16:16:59.113Z,15.37
2023-03-05T16:19:27.963Z,16.00
2023-03-05T16:21:55.320Z,17.83
2023-03-05T16:24:22.672Z,16.10
2023-03-05T16:26:50.168Z,15.57
2023-03-05T16:29:17.525Z,15.90
2023-03-05T16:31:45.540Z,20.23
2023-03-05T16:34:14.327Z,18.53
2023-03-05T16:36:43.114Z,19.33
2023-03-05T16:39:10.561Z,17.60
2023-03-05T16:41:38.283Z,15.07
2023-03-05T16:44:05.814Z,17.00
2023-03-05T16:46:35.073Z,17.83
2023-03-05T16:49:02.774Z,22.37
2023-03-05T16:51:30.130Z,28.97
2023-03-05T16:53:57.754Z,18.30
2023-03-05T16:56:25.331Z,20.00
2023-03-05T16:58:55.065Z,17.17
2023-03-05T17:01:23.752Z,20.07
2023-03-05T17:03:52.708Z,18.17
2023-03-05T17:06:27.196Z,17.63
2023-03-05T17:08:54.969Z,18.57
2023-03-05T17:11:22.377Z,17.40
2023-03-05T17:13:49.725Z,17.03
2023-03-05T17:16:18.125Z,15.03
2023-03-05T17:18:45.830Z,18.63
2023-03-05T17:21:13.441Z,15.27
2023-03-05T17:23:41.431Z,17.67
2023-03-05T17:26:10.558Z,17.53
2023-03-05T17:28:40.885Z,17.87
2023-03-05T17:31:08.762Z,19.87
2023-03-05T17:33:36.767Z,17.97
2023-03-05T17:36:04.692Z,18.53
2023-03-05T17:38:32.377Z,16.17
2023-03-05T17:40:59.809Z,18.57
2023-03-05T17:43:27.351Z,17.40
2023-03-05T17:45:59.678Z,17.77
2023-03-05T17:48:27.289Z,16.33
2023-03-05T17:50:54.924Z,18.00
2023-03-05T17:53:23.489Z,20.63
2023-03-05T17:55:50.930Z,20.57
2023-03-05T17:58:18.415Z,20.00
2023-03-05T18:00:45.926Z,22.27
2023-03-05T18:03:13.593Z,17.97
2023-03-05T18:05:41.287Z,20.23
2023-03-05T18:08:08.764Z,19.37
2023-03-05T18:10:36.238Z,15.40
2023-03-05T18:13:03.817Z,14.40
2023-03-05T18:15:31.263Z,19.20
2023-03-05T18:17:58.870Z,17.53
2023-03-05T18:20:29.283Z,16.90
2023-03-05T18:22:57.530Z,16.63
2023-03-05T18:25:31.278Z,16.27
2023-03-05T18:28:02.705Z,18.07
2023-03-05T18:30:30.790Z,12.40
2023-03-05T18:32:58.368Z,17.17
2023-03-05T18:35:25.871Z,17.63
2023-03-05T18:37:53.355Z,18.03
2023-03-05T18:40:22.305Z,17.73
2023-03-05T18:42:50.281Z,13.57
2023-03-05T18:45:19.002Z,15.93
2023-03-05T18:47:47.203Z,12.97
2023-03-05T18:50:15.878Z,19.90
2023-03-05T18:52:45.094Z,17.03
2023-03-05T18:55:17.290Z,15.33
2023-03-05T18:57:44.945Z,12.87
2023-03-05T19:00:16.295Z,15.93
2023-03-05T19:02:43.885Z,17.90
2023-03-05T19:05:11.526Z,16.63
2023-03-05T19:07:39.009Z,20.53
2023-03-05T19:10:08.405Z,13.70
2023-03-05T19:12:41.964Z,16.13
2023-03-05T19:15:09.566Z,16.70
2023-03-05T19:17:36.958Z,14.67
2023-03-05T19:20:06.662Z,15.23
2023-03-05T19:22:34.612Z,15.00
2023-03-05T19:25:02.023Z,14.37
2023-03-05T19:27:29.606Z,19.13
2023-03-05T19:29:58.232Z,18.93
2023-03-05T19:32:25.747Z,17.87
2023-03-05T19:34:56.506Z,16.47
2023-03-05T19:37:24.473Z,19.70
2023-03-05T19:39:52.008Z,16.90
2023-03-05T19:42:19.766Z,15.97
2023-03-05T19:44:47.240Z,15.13
2023-03-05T19:47:14.610Z,18.37
2023-03-05T19:49:41.948Z,17.93
2023-03-05T19:52:09.399Z,15.47
2023-03-05T19:54:37.048Z,17.07
2023-03-05T19:57:04.521Z,16.37
2023-03-05T19:59:31.988Z,18.93
2023-03-05T20:01:59.463Z,14.40
2023-03-05T20:04:28.167Z,16.47
2023-03-05T20:06:55.579Z,17.13
2023-03-05T20:09:23.218Z,19.83
2023-03-05T20:11:51.384Z,20.50
2023-03-05T20:14:18.873Z,18.90
2023-03-05T20:16:46.281Z,18.00
2023-03-05T20:19:18.269Z,17.23
2023-03-05T20:21:45.950Z,17.07
2023-03-05T20:24:14.606Z,16.97
2023-03-05T20:26:42.972Z,16.30
2023-03-05T20:29:10.851Z,18.97
2023-03-05T20:31:38.562Z,17.13
2023-03-05T20:34:07.002Z,18.53
2023-03-05T20:36:37.691Z,17.00
2023-03-05T20:39:05.784Z,16.03
2023-03-05T20:41:34.342Z,15.87
2023-03-05T20:44:03.611Z,17.47
2023-03-05T20:46:33.741Z,18.90
2023-03-05T20:49:02.053Z,18.40
2023-03-05T20:51:32.712Z,17.60
2023-03-05T20:54:03.330Z,15.77
2023-03-05T20:56:32.480Z,16.00
2023-03-05T20:59:04.037Z,15.67
2023-03-05T21:01:33.093Z,17.57
2023-03-05T21:04:01.590Z,20.00
2023-03-05T21:06:33.768Z,17.03
2023-03-05T21:09:01.529Z,17.90
2023-03-05T21:11:29.128Z,18.37
2023-03-05T21:13:56.687Z,20.07
2023-03-05T21:16:25.387Z,15.40
2023-03-05T21:18:53.412Z,18.37
2023-03-05T21:21:21.185Z,15.37
2023-03-05T21:23:48.767Z,18.60
2023-03-05T21:26:16.443Z,14.90
2023-03-05T21:28:43.895Z,14.27
2023-03-05T21:31:14.499Z,16.27
2023-03-05T21:33:42.304Z,15.77
2023-03-05T21:36:09.800Z,15.77
2023-03-05T21:38:37.450Z,16.93
2023-03-05T21:41:04.934Z,15.77
2023-03-05T21:43:32.452Z,19.30
2023-03-05T21:46:01.232Z,18.20
2023-03-05T21:48:28.796Z,18.73
2023-03-05T21:50:57.331Z,18.43
2023-03-05T21:53:25.264Z,20.00
2023-03-05T21:56:05.375Z,15.67
2023-03-05T21:58:35.272Z,16.20
2023-03-05T22:01:03.219Z,17.70
2023-03-05T22:03:31.229Z,19.60
2023-03-05T22:05:58.564Z,19.90
2023-03-05T22:08:26.157Z,16.73
2023-03-05T22:10:54.527Z,18.73
2023-03-05T22:13:22.423Z,15.03
2023-03-05T22:15:53.997Z,20.97
2023-03-05T22:18:23.349Z,17.80
2023-03-05T22:20:51.052Z,15.77
2023-03-05T22:23:19.074Z,16.90
2023-03-05T22:25:46.629Z,15.70
2023-03-05T22:28:14.521Z,15.33
2023-03-05T22:30:45.318Z,19.30
2023-03-05T22:33:13.013Z,18.30
2023-03-05T22:35:41.429Z,18.50
2023-03-05T22:38:09.842Z,16.47
2023-03-05T22:40:37.873Z,18.07
2023-03-05T22:43:05.396Z,17.40
2023-03-05T22:45:32.944Z,18.10
2023-03-05T22:48:00.443Z,17.53
2023-03-05T22:50:28.738Z,17.57
2023-03-05T22:52:56.200Z,15.73
2023-03-05T22:55:23.636Z,15.83
2023-03-05T22:57:51.008Z,17.17
2023-03-05T23:00:21.755Z,17.67
2023-03-05T23:02:49.037Z,16.50
2023-03-05T23:05:16.728Z,17.50
2023-03-05T23:07:44.631Z,20.63
2023-03-05T23:10:17.151Z,18.57
2023-03-05T23:12:46.330Z,19.27
2023-03-05T23:15:17.100Z,18.00
2023-03-05T23:17:44.977Z,18.77
2023-03-05T23:20:14.605Z,17.20
2023-03-05T23:22:42.014Z,19.10
2023-03-05T23:25:10.153Z,16.87
2023-03-05T23:27:37.634Z,16.07
2023-03-05T23:30:16.434Z,19.20
2023-03-05T23:32:46.488Z,19.73
2023-03-05T23:35:15.427Z,16.37
2023-03-05T23:37:42.794Z,16.10
2023-03-05T23:40:13.688Z,15.73
2023-03-05T23:42:41.205Z,18.03
2023-03-05T23:45:09.362Z,19.97
2023-03-05T23:47:37.169Z,16.87
2023-03-05T23:50:05.701Z,16.50
2023-03-05T23:52:33.127Z,17.80
2023-03-05T23:55:00.549Z,15.27
2023-03-05T23:57:27.841Z,16.23
2023-03-05T23:59:55.167Z,15.80
